Accueil
METAR-TAF:

METAR-TAF

Aéroports :

Turin, Italie

Aéroport Sandro-Pertini de Turin Caselle

latitude: 45-13N, longitude: 007-39E, altitude: 301 m

Observation

Le bulletin a été fait il y a 24 minutes, à 21:50 UTC
Vent 2 kt de nord/nord-est
Température 7°C
Humidité 93%
Pression 1020 hPa
Visibilité: 3000 m
Nuages fragmentés à une hauteur de 5000 ft
Ciel couvert à une hauteur de 6000 ft
brume

METAR: LIMF 242150Z 02002KT 3000 BR BKN050 OVC060 07/06 Q1020

Heure: 23:14 (22:14 UTC)

Prévision

Le bulletin a été fait il y a 5 heures et 14 minutes, à 17:00 UTC
Prévision valable du 24 à 18 UTC au 25 à 18 UTC
Vent 5 kt de direction variable
Visibilité: 3500 m
Nuages fragmentés à une hauteur de 5000 ft
brume
Temporairement
du 25 à 08 UTC au 25 à 12 UTC
Visibilité: 2000 m
Nuages fragmentés à une hauteur de 1000 ft
Ciel couvert à une hauteur de 3000 ft
bruine

TAF: LIMF 241700Z 2418/2518 VRB05KT 3500 BR BKN050 TEMPO 2508/2512 2000 DZ BKN010 OVC030

Observations et prévisions météorologiques de plus de 4000 aéroports (messages METAR et TAF).

Les stations disponibles sont représentées par des disques jaunes et rouges sur la carte.

Passer la souris dessus pour voir le nom de la station.

Cliquer dessus pour voir les observations et prévisions météorologiques.

Pour changer de carte: cliquez sur les boutons verts avec une croix noire pour zoomer, sur le bouton vert avec un tiret pour effectuer un zoom arrière, ou sur les flèches vertes pour les cartes adjacentes.


METAR-TAF: